Cordell, Oklahoma
Current Conditions -  °F | °C
As of 2:53 PM on Saturday 20 Dec 2014 (Local Time) from KCSM Reporting Station
Overcast Overcast  
Wind Chill: 41°   Ceiling: 1800
Heat Index: 46°   Visibility: 10mi
Dew Point: 38°   Wind: 12mph
Humidity: 73%   Direction: 180°S
Pressure: 30.11"   Gusts: NA
Location:  35.29°N, 98.99°W
Report Text: KCSM 202053Z AUTO 18010KT 10SM OVC018 08/03 A3011 RMK AO2 SLP199 T00780033 58009
Loading
Personal Weather Stations






























Interactive Weather Map New forecast layout! Learn more

10-Day Weather Forecast

Advertisements
Track Severe Weather on mobile